Time;durP1;ratioP1;P1;durP2;ratioP2;P2;SDS_P1;SDS_P2;PMS_P1;PMS_P2;Temp;Humidity;BMP_temperature;BMP_pressure;BME280_temperature;BME280_humidity;BME280_pressure;Samples;Min_cycle;Max_cycle;Signal;HPM_P1;HPM_P2
2023/04/03 00:00:55;;;;;;;9.85;5.90;;;;;;;9.03;76.50;100194.44;4928315;28;20062;-87
2023/04/03 00:03:21;;;;;;;10.90;6.22;;;;;;;8.99;76.64;100182.38;4977121;28;20054;-85
2023/04/03 00:05:49;;;;;;;7.82;5.32;;;;;;;9.05;76.36;100184.41;4939843;28;20379;-87
2023/04/03 00:08:15;;;;;;;11.68;5.80;;;;;;;9.27;75.83;100199.06;4953532;28;20065;-85
2023/04/03 00:10:40;;;;;;;11.68;5.93;;;;;;;9.33;75.60;100205.59;4952415;28;20046;-85
2023/04/03 00:13:06;;;;;;;9.18;5.30;;;;;;;9.26;75.33;100199.22;4939867;28;20065;-87
2023/04/03 00:15:35;;;;;;;8.07;4.95;;;;;;;9.30;75.20;100212.13;4940032;28;20047;-86
2023/04/03 00:18:01;;;;;;;9.23;4.82;;;;;;;9.33;74.52;100210.13;4972975;28;20039;-86
2023/04/03 00:20:27;;;;;;;9.32;5.57;;;;;;;9.30;74.65;100203.25;4941039;28;20046;-86
2023/04/03 00:22:53;;;;;;;7.55;5.22;;;;;;;9.25;74.46;100194.88;4939915;28;20149;-86
2023/04/03 00:25:20;;;;;;;8.40;5.40;;;;;;;9.30;74.29;100205.94;4930680;28;20417;-87
2023/04/03 00:27:46;;;;;;;9.10;5.40;;;;;;;9.35;74.26;100200.91;4954798;28;20471;-85
2023/04/03 00:30:16;;;;;;;8.30;5.43;;;;;;;9.33;74.19;100194.88;4955639;28;20054;-86
2023/04/03 00:32:41;;;;;;;10.70;5.55;;;;;;;9.30;74.60;100211.31;4923472;28;20049;-86
2023/04/03 00:35:08;;;;;;;10.18;6.10;;;;;;;9.07;75.27;100184.25;4940591;28;20042;-87
2023/04/03 00:37:35;;;;;;;11.90;6.13;;;;;;;9.20;75.59;100210.59;4937566;28;20070;-87
2023/04/03 00:40:01;;;;;;;14.00;7.68;;;;;;;9.19;75.56;100214.28;4957913;28;20043;-86
2023/04/03 00:42:26;;;;;;;13.27;8.32;;;;;;;9.07;75.83;100211.91;4952897;28;20047;-86
2023/04/03 00:44:55;;;;;;;12.15;8.38;;;;;;;9.07;75.74;100201.16;4921762;28;20125;-86
2023/04/03 00:47:21;;;;;;;16.02;8.90;;;;;;;9.18;75.29;100205.41;4969261;28;20058;-86
2023/04/03 00:49:46;;;;;;;12.65;7.95;;;;;;;9.10;75.06;100197.31;4936968;28;20117;-85
2023/04/03 00:52:16;;;;;;;12.23;8.40;;;;;;;9.02;75.31;100192.78;4937255;29;20102;-85
2023/04/03 00:54:43;;;;;;;11.90;7.38;;;;;;;8.85;75.82;100186.53;4936531;28;20053;-85
2023/04/03 00:57:10;;;;;;;13.52;7.60;;;;;;;8.81;76.22;100187.84;4931682;28;20121;-86
2023/04/03 00:59:41;;;;;;;11.10;7.68;;;;;;;8.89;76.14;100192.38;4945132;28;20113;-86
2023/04/03 01:02:11;;;;;;;11.85;7.05;;;;;;;8.80;76.42;100204.06;4930121;28;20427;-85
2023/04/03 01:04:37;;;;;;;14.23;6.85;;;;;;;8.66;77.51;100205.50;4955766;28;20082;-86
2023/04/03 01:07:17;;;;;;;12.30;6.35;;;;;;;8.62;77.58;100198.81;4935090;28;20141;-85
2023/04/03 01:09:42;;;;;;;11.63;6.75;;;;;;;8.51;77.55;100177.63;4959629;28;20396;-86
2023/04/03 01:12:16;;;;;;;15.07;6.30;;;;;;;8.53;77.52;100187.19;4933837;28;20050;-87
2023/04/03 01:14:46;;;;;;;10.10;6.65;;;;;;;8.58;77.53;100192.91;4952654;28;20057;-85
2023/04/03 01:17:53;;;;;;;9.50;6.45;;;;;;;8.52;77.76;100190.03;4939048;28;20039;-86
2023/04/03 01:20:31;;;;;;;12.20;6.78;;;;;;;8.41;77.95;100170.56;4915966;28;20082;-87
2023/04/03 01:23:08;;;;;;;12.65;6.65;;;;;;;8.46;77.99;100180.78;4970259;28;20457;-86
2023/04/03 01:25:44;;;;;;;11.07;7.07;;;;;;;8.42;78.15;100184.78;4969640;28;20441;-86
2023/04/03 01:28:14;;;;;;;11.07;7.03;;;;;;;8.51;77.48;100173.13;4967616;28;20133;-86
2023/04/03 01:31:02;;;;;;;11.85;6.95;;;;;;;8.50;77.48;100175.94;4954527;28;20047;-86
2023/04/03 01:33:28;;;;;;;11.63;7.07;;;;;;;8.57;77.28;100175.16;4968147;28;20665;-87
2023/04/03 01:35:54;;;;;;;13.18;7.03;;;;;;;8.28;78.26;100170.09;4938420;28;20065;-84
2023/04/03 01:38:20;;;;;;;13.93;7.53;;;;;;;8.28;78.31;100166.59;4953889;28;20066;-86
2023/04/03 01:40:48;;;;;;;15.55;7.85;;;;;;;8.16;78.90;100166.84;4950903;28;20042;-85
2023/04/03 01:43:14;;;;;;;13.45;7.30;;;;;;;8.24;78.87;100187.47;4934940;28;20472;-86
2023/04/03 01:45:41;;;;;;;12.57;7.82;;;;;;;8.20;78.25;100170.06;4918160;28;20090;-86
2023/04/03 01:48:07;;;;;;;11.20;7.55;;;;;;;8.17;78.45;100191.78;4951993;28;20142;-87
2023/04/03 01:50:33;;;;;;;15.60;8.73;;;;;;;8.13;79.07;100201.97;4942224;29;20066;-85
2023/04/03 01:52:58;;;;;;;16.92;8.70;;;;;;;8.13;78.94;100196.63;4955071;28;20114;-84
2023/04/03 01:55:25;;;;;;;15.25;9.02;;;;;;;7.96;80.15;100218.91;4924753;29;20051;-86
2023/04/03 01:57:53;;;;;;;22.48;12.23;;;;;;;7.95;80.73;100226.09;4930453;29;20098;-87
2023/04/03 02:00:23;;;;;;;21.75;13.07;;;;;;;7.81;81.90;100215.94;4952384;28;20103;-84
2023/04/03 02:02:51;;;;;;;29.05;14.05;;;;;;;7.64;82.33;100196.22;4983301;28;20050;-87
2023/04/03 02:05:19;;;;;;;27.55;14.35;;;;;;;7.69;82.69;100220.69;4953683;28;20054;-86
2023/04/03 02:07:45;;;;;;;22.25;12.35;;;;;;;7.73;82.56;100231.94;4979463;28;20043;-85
2023/04/03 02:10:12;;;;;;;21.38;13.00;;;;;;;7.64;82.63;100225.66;4920736;28;20069;-85
2023/04/03 02:12:37;;;;;;;29.05;15.27;;;;;;;7.65;82.87;100230.00;4945128;28;20121;-85
2023/04/03 02:15:03;;;;;;;29.08;16.52;;;;;;;7.71;83.09;100233.91;4953268;28;20058;-85
2023/04/03 02:17:34;;;;;;;29.17;18.10;;;;;;;7.51;83.28;100201.09;4934914;28;20074;-86
2023/04/03 02:20:03;;;;;;;36.47;19.08;;;;;;;7.76;82.96;100235.13;4946071;28;20038;-86
2023/04/03 02:22:28;;;;;;;38.85;22.55;;;;;;;7.77;84.05;100235.97;4968679;28;20072;-85
2023/04/03 02:24:54;;;;;;;48.10;29.02;;;;;;;7.63;85.58;100212.41;4971327;28;20496;-85
2023/04/03 02:27:19;;;;;;;57.38;30.13;;;;;;;7.78;85.97;100222.44;4954588;28;20371;-87
2023/04/03 02:29:45;;;;;;;46.92;26.80;;;;;;;7.75;85.75;100197.81;4953223;28;20117;-85
2023/04/03 02:32:13;;;;;;;51.53;29.08;;;;;;;7.79;85.78;100199.19;4965849;28;20055;-85
2023/04/03 02:34:41;;;;;;;49.92;29.40;;;;;;;7.95;85.48;100217.22;4918256;28;20130;-85
2023/04/03 02:37:06;;;;;;;48.80;28.10;;;;;;;7.96;84.95;100208.19;4921528;28;20129;-85
2023/04/03 02:39:32;;;;;;;45.00;25.40;;;;;;;8.09;84.06;100218.50;4948209;28;20760;-84
2023/04/03 02:41:59;;;;;;;38.92;21.80;;;;;;;8.11;83.38;100209.31;4955439;28;20038;-85
2023/04/03 02:44:24;;;;;;;28.70;18.08;;;;;;;8.14;82.55;100206.31;4931176;28;20047;-86
2023/04/03 02:46:50;;;;;;;33.53;18.73;;;;;;;8.29;81.83;100227.19;4948640;28;20035;-86
2023/04/03 02:49:18;;;;;;;32.33;20.35;;;;;;;8.21;81.82;100210.06;4948620;29;20138;-84
2023/04/03 02:51:43;;;;;;;33.63;22.02;;;;;;;8.37;81.38;100236.13;4937119;28;20050;-87
2023/04/03 02:54:09;;;;;;;33.40;20.85;;;;;;;8.39;80.78;100222.59;4953154;28;20062;-86
2023/04/03 02:56:35;;;;;;;30.60;19.27;;;;;;;8.45;80.25;100233.53;4952220;28;20023;-88
2023/04/03 02:59:03;;;;;;;21.80;14.00;;;;;;;8.48;79.17;100232.38;4954880;28;20033;-86
2023/04/03 03:01:32;;;;;;;18.50;12.95;;;;;;;8.51;78.64;100234.75;4969941;28;20031;-82
2023/04/03 03:03:58;;;;;;;22.02;12.13;;;;;;;8.58;78.38;100234.94;4954822;28;20046;-86
2023/04/03 03:06:24;;;;;;;18.50;12.65;;;;;;;8.57;78.18;100242.16;4938029;28;20047;-84
2023/04/03 03:08:50;;;;;;;22.30;12.45;;;;;;;8.53;77.78;100227.38;4926516;28;20051;-85
2023/04/03 03:11:17;;;;;;;22.05;12.68;;;;;;;8.53;78.21;100246.16;4941810;28;20061;-87
2023/04/03 03:13:47;;;;;;;19.00;11.50;;;;;;;8.43;77.44;100229.34;4948551;28;20183;-86
2023/04/03 03:16:12;;;;;;;19.08;11.50;;;;;;;8.59;77.50;100261.59;4968777;28;20050;-86
2023/04/03 03:18:38;;;;;;;20.52;11.63;;;;;;;8.40;77.31;100230.47;4950672;28;20053;-86
2023/04/03 03:21:04;;;;;;;19.27;11.10;;;;;;;8.41;76.98;100239.38;4936148;28;20517;-86
2023/04/03 03:23:32;;;;;;;18.33;11.50;;;;;;;8.53;77.29;100272.94;4950452;28;20141;-86
2023/04/03 03:26:09;;;;;;;25.90;14.02;;;;;;;8.61;76.91;100251.53;4957730;28;20042;-85
2023/04/03 03:28:38;;;;;;;26.27;15.65;;;;;;;8.68;77.16;100264.31;4931464;28;20061;-85
2023/04/03 03:31:07;;;;;;;31.83;17.45;;;;;;;8.63;77.58;100268.31;4972585;28;20140;-87
2023/04/03 03:33:34;;;;;;;32.45;18.75;;;;;;;8.59;77.49;100275.00;4941800;28;20043;-87
2023/04/03 03:36:01;;;;;;;29.48;17.42;;;;;;;8.49;77.90;100286.81;4934960;28;20047;-87
2023/04/03 03:38:28;;;;;;;28.63;16.70;;;;;;;8.28;78.76;100279.06;4945851;28;20519;-87
2023/04/03 03:40:54;;;;;;;29.25;16.77;;;;;;;8.23;78.95;100293.75;4933823;28;20035;-86
2023/04/03 03:43:23;;;;;;;28.70;17.17;;;;;;;8.20;78.71;100288.72;4973389;28;20102;-86
2023/04/03 03:45:53;;;;;;;35.17;19.48;;;;;;;8.08;79.46;100295.31;4952848;28;20089;-85
2023/04/03 03:48:22;;;;;;;39.80;20.90;;;;;;;7.92;80.16;100296.00;4968901;28;20050;-86
2023/04/03 03:50:49;;;;;;;34.83;21.90;;;;;;;7.68;80.87;100301.09;4934595;28;20141;-86
2023/04/03 03:53:14;;;;;;;;;;;;;;;7.58;81.65;100310.03;4927262;28;20039;-85
2023/04/03 03:55:43;;;;;;;37.05;19.35;;;;;;;7.54;81.79;100313.19;4951489;28;19973;-86
2023/04/03 03:58:09;;;;;;;31.70;18.73;;;;;;;7.48;81.95;100319.13;4936935;28;20047;-86
2023/04/03 04:00:41;;;;;;;33.80;18.08;;;;;;;7.43;82.30;100316.06;4971735;28;20094;-86
2023/04/03 04:03:07;;;;;;;33.08;17.92;;;;;;;7.47;82.18;100306.72;4967314;28;20059;-85
2023/04/03 04:05:32;;;;;;;27.98;16.95;;;;;;;7.50;81.64;100298.41;4949421;28;20598;-85
2023/04/03 04:07:58;;;;;;;32.75;15.75;;;;;;;7.47;81.60;100302.22;4932180;28;20043;-85
2023/04/03 04:10:25;;;;;;;29.25;17.30;;;;;;;7.61;81.12;100316.94;4930376;28;20063;-87
2023/04/03 04:12:53;;;;;;;20.20;12.85;;;;;;;7.73;80.37;100326.44;4942677;28;20047;-85
2023/04/03 04:15:21;;;;;;;21.17;10.70;;;;;;;7.80;79.52;100319.47;4965627;28;20054;-88
2023/04/03 04:17:48;;;;;;;18.45;10.35;;;;;;;7.89;79.18;100306.16;4935268;28;20043;-85
2023/04/03 04:20:14;;;;;;;18.17;9.60;;;;;;;8.12;78.44;100320.78;4959527;28;20055;-85
2023/04/03 04:22:39;;;;;;;20.55;9.70;;;;;;;8.12;78.07;100319.94;4959741;28;20456;-85
2023/04/03 04:25:07;;;;;;;17.42;9.32;;;;;;;8.31;77.48;100313.56;4955233;28;20043;-87
2023/04/03 04:27:36;;;;;;;22.23;10.65;;;;;;;8.52;76.62;100319.50;4952789;28;20051;-86
2023/04/03 04:30:05;;;;;;;13.50;8.52;;;;;;;8.47;75.52;100305.69;4956986;28;20105;-86
2023/04/03 04:32:30;;;;;;;18.02;8.50;;;;;;;8.68;75.27;100334.00;4955236;28;20045;-86
2023/04/03 04:34:56;;;;;;;13.85;8.15;;;;;;;8.71;75.12;100322.94;4972681;28;20447;-85
2023/04/03 04:37:22;;;;;;;19.07;8.60;;;;;;;8.85;74.91;100314.38;4954782;28;20043;-85
2023/04/03 04:39:49;;;;;;;11.85;7.75;;;;;;;8.97;74.10;100317.63;4969479;28;20285;-86
2023/04/03 04:42:15;;;;;;;16.17;7.50;;;;;;;8.93;73.76;100309.03;4950804;28;20049;-87
2023/04/03 04:44:40;;;;;;;15.05;7.28;;;;;;;9.06;73.11;100317.50;4939355;28;20054;-85
2023/04/03 04:47:26;;;;;;;11.05;6.68;;;;;;;9.14;72.45;100318.53;4952955;28;20141;-86
2023/04/03 04:49:53;;;;;;;11.30;6.78;;;;;;;9.26;71.73;100301.16;4953328;28;20039;-86
2023/04/03 04:52:26;;;;;;;16.33;7.30;;;;;;;9.54;70.73;100314.34;4937849;28;20053;-85
2023/04/03 04:54:58;;;;;;;12.07;6.70;;;;;;;9.60;70.34;100306.47;4971145;28;20131;-86
2023/04/03 04:57:25;;;;;;;17.58;7.20;;;;;;;9.91;69.58;100306.72;4935304;28;20141;-86
2023/04/03 04:59:55;;;;;;;16.70;7.20;;;;;;;9.96;69.01;100286.59;4929561;28;20055;-85
2023/04/03 05:02:20;;;;;;;14.13;7.15;;;;;;;10.03;69.40;100309.09;4949185;28;20141;-87
2023/04/03 05:04:51;;;;;;;18.13;5.90;;;;;;;10.23;68.57;100310.47;4952569;28;20114;-85
2023/04/03 05:07:21;;;;;;;14.25;5.07;;;;;;;10.22;67.97;100283.75;4926047;28;20046;-87
2023/04/03 05:09:50;;;;;;;8.73;4.07;;;;;;;10.42;67.51;100295.00;4953141;28;20074;-88
2023/04/03 05:12:24;;;;;;;7.82;3.47;;;;;;;10.54;66.51;100293.69;4928215;28;20061;-87
2023/04/03 05:14:51;;;;;;;8.60;3.50;;;;;;;10.81;66.32;100311.25;4936472;28;20098;-89
2023/04/03 05:17:19;;;;;;;8.30;2.95;;;;;;;10.93;65.44;100306.38;4948150;28;20047;-87
2023/04/03 05:19:47;;;;;;;5.03;3.17;;;;;;;11.04;65.19;100300.63;4929855;28;20050;-86
2023/04/03 05:22:13;;;;;;;6.72;3.30;;;;;;;11.35;64.64;100305.22;4923450;28;20528;-87
2023/04/03 05:24:58;;;;;;;7.43;3.70;;;;;;;11.40;64.08;100298.31;4954705;28;20090;-86
2023/04/03 05:27:24;;;;;;;9.07;3.90;;;;;;;11.84;62.73;100300.41;4923759;28;20051;-86
2023/04/03 05:29:55;;;;;;;;;;;;;;;12.59;60.52;100308.81;4972120;28;20100;-87
2023/04/03 05:32:22;;;;;;;10.98;4.25;;;;;;;13.05;58.41;100292.50;4934215;28;19922;-87
2023/04/03 05:34:56;;;;;;;8.38;4.32;;;;;;;13.32;57.67;100306.38;4983159;28;20070;-87
2023/04/03 05:37:23;;;;;;;5.90;3.15;;;;;;;13.22;56.72;100303.94;4936465;28;20050;-88
2023/04/03 05:39:49;;;;;;;6.57;3.20;;;;;;;13.94;55.42;100308.59;4933735;29;20039;-88
2023/04/03 05:42:17;;;;;;;6.50;3.65;;;;;;;14.40;53.53;100316.34;4948219;28;20485;-87
2023/04/03 05:44:47;;;;;;;9.68;4.20;;;;;;;14.91;52.28;100323.41;4952956;28;20113;-86
2023/04/03 05:47:20;;;;;;;9.65;3.67;;;;;;;15.73;50.17;100322.66;4939924;28;20054;-88
2023/04/03 05:49:48;;;;;;;11.43;4.57;;;;;;;16.77;47.95;100309.66;4939376;28;20121;-86
2023/04/03 05:52:24;;;;;;;7.40;3.30;;;;;;;16.80;46.69;100311.97;4938787;28;20153;-86
2023/04/03 05:54:49;;;;;;;7.95;3.53;;;;;;;17.67;45.12;100320.72;4972570;28;20086;-89
2023/04/03 05:57:15;;;;;;;;;;;;;;;18.08;44.16;100316.78;4911701;28;20047;-87
2023/04/03 05:59:43;;;;;;;8.23;2.75;;;;;;;18.34;43.08;100324.78;4939304;28;19973;-86
2023/04/03 06:02:12;;;;;;;5.82;2.67;;;;;;;18.43;43.12;100319.91;4934188;28;20043;-88
2023/04/03 06:04:40;;;;;;;4.85;2.50;;;;;;;18.46;42.30;100303.13;4954778;28;20108;-85
2023/04/03 06:07:07;;;;;;;7.00;2.90;;;;;;;18.08;43.55;100333.13;4962254;28;20065;-87
2023/04/03 06:09:35;;;;;;;4.65;2.70;;;;;;;18.22;43.25;100323.81;4970733;28;20055;-87
2023/04/03 06:12:02;;;;;;;7.65;3.00;;;;;;;18.60;42.58;100325.63;4968053;28;20031;-87
2023/04/03 06:14:35;;;;;;;7.75;3.15;;;;;;;19.12;41.75;100337.13;4945614;28;20054;-88
2023/04/03 06:17:01;;;;;;;5.90;2.63;;;;;;;19.67;40.85;100324.59;4957022;28;20054;-87
2023/04/03 06:19:28;;;;;;;4.43;2.60;;;;;;;19.87;39.99;100333.34;4935771;28;20074;-88
2023/04/03 06:21:53;;;;;;;6.47;3.47;;;;;;;20.23;40.08;100342.53;4938026;28;20039;-88
2023/04/03 06:24:23;;;;;;;7.30;3.38;;;;;;;20.74;39.05;100356.66;4936046;28;20554;-89
2023/04/03 06:26:50;;;;;;;5.82;2.75;;;;;;;21.12;38.35;100372.63;4943666;28;20054;-87
2023/04/03 06:29:19;;;;;;;3.42;2.40;;;;;;;21.16;37.61;100354.66;4931186;29;20053;-86
2023/04/03 06:31:57;;;;;;;6.18;4.47;;;;;;;20.73;38.41;100383.16;4965837;28;20125;-88
2023/04/03 06:34:24;;;;;;;5.22;2.75;;;;;;;20.19;39.13;100361.25;4948391;28;20078;-89
2023/04/03 06:36:51;;;;;;;8.60;2.70;;;;;;;20.21;39.85;100391.88;4945777;28;20043;-88
2023/04/03 06:39:22;;;;;;;10.43;3.90;;;;;;;20.63;39.16;100400.13;4937035;28;20043;-88
2023/04/03 06:41:48;;;;;;;5.00;2.80;;;;;;;20.44;38.74;100410.25;4921411;28;20460;-86
2023/04/03 06:44:15;;;;;;;3.50;2.40;;;;;;;20.45;38.78;100411.91;4953092;28;20065;-88
2023/04/03 06:46:41;;;;;;;5.53;2.60;;;;;;;20.75;39.13;100416.53;4942182;28;20049;-89
2023/04/03 06:49:09;;;;;;;4.07;2.20;;;;;;;20.64;38.59;100412.69;4980281;28;20043;-88
2023/04/03 06:51:36;;;;;;;4.53;2.45;;;;;;;20.64;38.66;100429.09;4946883;28;20176;-89
2023/04/03 06:54:03;;;;;;;5.20;2.60;;;;;;;20.93;38.86;100422.97;4933306;28;20042;-87
2023/04/03 06:56:30;;;;;;;7.63;5.07;;;;;;;20.90;38.36;100420.72;4936243;28;20419;-88
2023/04/03 06:59:08;;;;;;;13.07;5.18;;;;;;;20.89;38.46;100424.53;4937925;28;20053;-94
2023/04/03 07:01:35;;;;;;;4.43;3.10;;;;;;;20.67;38.63;100397.75;4944264;28;20066;-96
2023/04/03 07:04:02;;;;;;;8.63;2.65;;;;;;;21.50;37.76;100409.63;4938250;28;20111;-95
2023/04/03 07:06:39;;;;;;;6.28;2.45;;;;;;;22.04;36.64;100414.88;4954125;28;20617;-95
2023/04/03 07:09:07;;;;;;;6.72;2.60;;;;;;;22.38;35.80;100410.34;4969918;28;20034;-89
2023/04/03 07:11:36;;;;;;;7.30;3.42;;;;;;;22.50;35.17;100397.44;4966434;28;20042;-90
2023/04/03 07:14:02;;;;;;;7.57;3.15;;;;;;;22.71;35.18;100392.28;4961315;28;20062;-89
2023/04/03 07:16:30;;;;;;;7.50;4.90;;;;;;;22.83;34.79;100405.94;4951320;28;20043;-89
2023/04/03 07:18:57;;;;;;;3.78;2.42;;;;;;;23.03;34.45;100383.53;4958676;28;20039;-90
2023/04/03 07:21:24;;;;;;;5.43;2.55;;;;;;;23.35;33.88;100412.00;4929157;28;20092;-93
2023/04/03 07:23:50;;;;;;;4.15;1.95;;;;;;;22.99;34.07;100398.81;4947294;28;20058;-89
2023/04/03 07:26:18;;;;;;;3.35;2.00;;;;;;;23.41;34.18;100414.81;4943606;29;20189;-91
2023/04/03 07:28:48;;;;;;;5.85;2.58;;;;;;;23.11;34.05;100391.38;4951651;28;20046;-89
2023/04/03 07:31:23;;;;;;;14.50;11.27;;;;;;;23.20;34.61;100398.06;4965137;28;20042;-91
2023/04/03 07:34:17;;;;;;;8.70;4.18;;;;;;;23.12;34.23;100393.00;4927287;28;20118;-91
2023/04/03 07:37:13;;;;;;;5.55;2.50;;;;;;;23.21;34.42;100402.47;4962776;28;20035;-91
2023/04/03 07:40:03;;;;;;;2.40;1.70;;;;;;;23.89;33.10;100407.84;4989172;28;20038;-90
2023/04/03 07:42:31;;;;;;;4.25;2.70;;;;;;;23.56;33.86;100415.06;5009047;23;20108;-88
2023/04/03 07:45:01;;;;;;;4.68;2.50;;;;;;;23.73;33.78;100426.81;4923072;29;20052;-89
2023/04/03 07:47:28;;;;;;;4.53;2.70;;;;;;;23.31;33.88;100402.63;4904262;29;20170;-91
2023/04/03 07:49:57;;;;;;;8.85;4.30;;;;;;;23.51;33.87;100417.72;4912498;29;20225;-91
2023/04/03 07:52:33;;;;;;;10.95;3.40;;;;;;;22.81;34.15;100430.84;4917682;29;20040;-89
2023/04/03 07:54:59;;;;;;;15.43;7.97;;;;;;;22.46;34.86;100420.09;4930912;29;20041;-90
2023/04/03 07:57:25;;;;;;;9.82;5.30;;;;;;;22.37;34.96;100424.31;4918202;29;20516;-89
2023/04/03 07:59:52;;;;;;;9.10;4.50;;;;;;;22.45;34.84;100449.41;4918917;29;20039;-87
2023/04/03 08:02:18;;;;;;;9.40;4.55;;;;;;;21.64;35.90;100446.59;4898741;29;20453;-88
2023/04/03 08:04:45;;;;;;;7.38;4.60;;;;;;;21.75;36.05;100455.00;4917329;29;20040;-89
2023/04/03 08:07:10;;;;;;;6.78;3.67;;;;;;;22.12;35.13;100459.13;4897892;29;20121;-93
2023/04/03 08:09:41;;;;;;;8.48;3.65;;;;;;;22.60;34.61;100456.25;4919207;29;20071;-91
2023/04/03 08:12:15;;;;;;;4.47;3.22;;;;;;;22.55;34.54;100452.31;4900597;29;20059;-92
2023/04/03 08:14:40;;;;;;;7.38;3.30;;;;;;;22.21;35.27;100442.31;4909651;29;20044;-89
2023/04/03 08:17:11;;;;;;;4.43;3.63;;;;;;;21.81;35.90;100443.94;4910692;29;20163;-88
2023/04/03 08:19:42;;;;;;;7.88;3.90;;;;;;;22.03;35.83;100446.88;4907403;29;20175;-87
2023/04/03 08:22:09;;;;;;;8.18;4.25;;;;;;;21.71;36.14;100441.00;4895883;29;20111;-89
2023/04/03 08:24:36;;;;;;;5.25;3.88;;;;;;;21.23;37.12;100453.78;4912479;29;20062;-87
2023/04/03 08:27:01;;;;;;;7.13;4.30;;;;;;;21.48;36.79;100450.03;4915521;29;20533;-84
2023/04/03 08:29:27;;;;;;;5.80;3.60;;;;;;;21.74;35.99;100443.22;4912455;29;20154;-84
2023/04/03 08:31:52;;;;;;;7.65;3.80;;;;;;;21.70;36.43;100448.38;4900956;29;20048;-85
2023/04/03 08:34:23;;;;;;;7.38;3.53;;;;;;;22.51;35.11;100442.91;4912627;29;20127;-85
2023/04/03 08:36:51;;;;;;;7.05;3.90;;;;;;;22.77;34.72;100448.88;4900863;29;20407;-87
2023/04/03 08:39:16;;;;;;;5.80;3.92;;;;;;;23.23;34.37;100448.84;4896626;29;20055;-85
2023/04/03 08:41:46;;;;;;;6.38;3.80;;;;;;;23.18;33.80;100453.16;4915957;29;20103;-85
2023/04/03 08:44:36;;;;;;;7.95;3.90;;;;;;;23.14;34.38;100462.97;4900463;29;20207;-85
2023/04/03 08:47:13;;;;;;;8.00;4.43;;;;;;;22.84;35.15;100457.75;4929537;29;20507;-87
2023/04/03 08:50:11;;;;;;;9.15;3.75;;;;;;;22.51;36.09;100456.63;4915820;29;20084;-88
2023/04/03 08:53:10;;;;;;;5.93;4.07;;;;;;;21.39;37.98;100456.91;4932552;29;20055;-89
2023/04/03 08:55:50;;;;;;;7.63;4.43;;;;;;;21.69;38.28;100460.38;4917855;29;20051;-88
2023/04/03 08:58:29;;;;;;;6.10;4.70;;;;;;;20.85;39.41;100448.75;4932800;29;20047;-87
2023/04/03 09:01:04;;;;;;;5.35;4.07;;;;;;;21.29;39.12;100452.84;4892796;29;20143;-89
2023/04/03 09:03:40;;;;;;;6.03;4.47;;;;;;;21.77;38.63;100452.88;4914604;29;20044;-86
2023/04/03 09:06:26;;;;;;;6.50;4.40;;;;;;;21.52;38.94;100445.75;4890094;29;20062;-87
2023/04/03 09:09:02;;;;;;;6.53;4.45;;;;;;;21.22;39.51;100441.19;4903676;29;20124;-87
2023/04/03 09:12:25;;;;;;;6.63;4.72;;;;;;;20.97;39.71;100462.44;4923130;29;20044;-87
2023/04/03 09:15:06;;;;;;;7.75;5.10;;;;;;;21.05;40.26;100446.53;4878978;29;20080;-87
2023/04/03 09:17:35;;;;;;;8.52;5.15;;;;;;;20.66;40.95;100454.28;4922505;29;20063;-87
2023/04/03 09:20:25;;;;;;;6.45;4.90;;;;;;;20.34;41.62;100429.06;4950015;29;20063;-87
2023/04/03 09:22:53;;;;;;;8.35;4.70;;;;;;;20.57;41.81;100450.19;4938812;29;20048;-86
2023/04/03 09:25:33;;;;;;;8.02;4.70;;;;;;;20.94;41.50;100433.69;4932852;29;20054;-87
2023/04/03 09:28:02;;;;;;;12.68;6.25;;;;;;;20.82;41.95;100441.84;4906049;29;20571;-86
2023/04/03 09:30:28;;;;;;;6.90;5.30;;;;;;;20.79;42.28;100447.78;4934547;29;20044;-87
2023/04/03 09:32:58;;;;;;;7.63;5.03;;;;;;;20.66;42.79;100451.53;4897297;29;20131;-87
2023/04/03 09:35:37;;;;;;;8.43;5.50;;;;;;;19.78;44.54;100419.28;4919385;29;20052;-89
2023/04/03 09:38:19;;;;;;;7.43;5.43;;;;;;;20.42;43.82;100445.13;4924546;29;20062;-85
2023/04/03 09:40:51;;;;;;;7.72;5.32;;;;;;;19.06;46.99;100455.19;4916085;29;20078;-87
2023/04/03 09:43:31;;;;;;;8.90;5.15;;;;;;;19.36;46.10;100459.94;4899309;29;20056;-86
2023/04/03 09:46:21;;;;;;;6.65;5.03;;;;;;;19.58;45.42;100450.31;4896067;29;20083;-85
2023/04/03 09:48:52;;;;;;;6.57;4.53;;;;;;;19.48;45.43;100455.44;4931521;29;20074;-86
2023/04/03 09:51:18;;;;;;;7.00;4.72;;;;;;;19.26;45.87;100467.81;4916296;29;20032;-86
2023/04/03 09:53:46;;;;;;;8.48;5.00;;;;;;;19.09;46.30;100464.81;4899283;29;20052;-86
2023/04/03 09:56:17;;;;;;;6.47;4.90;;;;;;;19.51;45.46;100471.34;4933881;29;20040;-87
2023/04/03 09:59:07;;;;;;;9.60;5.15;;;;;;;18.98;46.30;100459.00;4938034;29;20040;-84
2023/04/03 10:01:40;;;;;;;7.63;5.38;;;;;;;18.45;47.58;100475.66;4912856;29;20068;-86
2023/04/03 10:04:10;;;;;;;6.30;4.88;;;;;;;18.47;47.79;100461.81;4918780;29;20453;-87
2023/04/03 10:06:43;;;;;;;7.50;4.95;;;;;;;18.34;48.19;100469.00;4915990;29;20036;-86
2023/04/03 10:09:23;;;;;;;10.20;5.68;;;;;;;18.19;48.83;100462.16;4900560;29;20163;-86
2023/04/03 10:12:05;;;;;;;9.13;5.75;;;;;;;18.03;49.53;100467.06;4932640;29;20031;-85
2023/04/03 10:14:32;;;;;;;8.38;5.50;;;;;;;17.79;49.99;100465.81;4913625;29;20047;-86
2023/04/03 10:17:18;;;;;;;6.85;4.75;;;;;;;17.82;49.21;100467.34;4914352;29;20052;-87
2023/04/03 10:19:59;;;;;;;10.20;4.80;;;;;;;18.03;49.00;100461.63;4914786;29;20123;-87
2023/04/03 10:22:47;;;;;;;7.90;4.47;;;;;;;17.89;48.78;100477.13;4931238;29;20058;-86
2023/04/03 10:25:41;;;;;;;8.70;5.05;;;;;;;18.27;48.18;100465.47;4918974;29;20039;-87
2023/04/03 10:28:38;;;;;;;8.73;5.10;;;;;;;18.85;46.31;100463.75;4915261;29;20051;-88
2023/04/03 10:31:27;;;;;;;6.53;4.82;;;;;;;18.79;46.15;100456.44;4930453;29;20043;-92
2023/04/03 10:34:25;;;;;;;5.80;4.00;;;;;;;18.64;45.43;100432.22;4931469;29;20077;-86
2023/04/03 10:37:21;;;;;;;7.07;4.00;;;;;;;19.55;43.79;100441.72;4917413;29;20044;-87
2023/04/03 10:39:54;;;;;;;5.72;4.15;;;;;;;19.48;43.58;100438.25;4916936;29;20107;-89
2023/04/03 10:42:54;;;;;;;6.93;3.95;;;;;;;19.69;43.53;100439.72;4896377;29;20052;-87
2023/04/03 10:45:58;;;;;;;5.53;4.13;;;;;;;19.66;42.80;100415.63;4910895;29;20407;-86
2023/04/03 10:48:47;;;;;;;5.27;3.70;;;;;;;19.90;42.74;100431.13;4912288;29;20062;-88
2023/04/03 10:51:30;;;;;;;4.90;3.53;;;;;;;20.28;41.69;100434.63;4913097;29;20044;-88
2023/04/03 10:54:37;;;;;;;4.88;3.30;;;;;;;20.95;40.22;100434.50;4929559;29;20118;-86
2023/04/03 10:57:09;;;;;;;4.18;3.20;;;;;;;22.08;38.13;100416.88;4859104;29;20049;-89
2023/04/03 10:59:48;;;;;;;5.60;3.22;;;;;;;21.78;37.96;100438.13;4849295;29;20080;-87
2023/04/03 11:02:56;;;;;;;5.90;3.15;;;;;;;21.82;37.96;100439.28;4870681;29;20099;-86
2023/04/03 11:05:35;;;;;;;5.00;3.47;;;;;;;21.70;38.35;100401.88;4885119;29;20170;-87
2023/04/03 11:08:30;;;;;;;5.97;3.58;;;;;;;21.50;38.47;100404.16;4923406;29;20102;-91
2023/04/03 11:10:57;;;;;;;;;;;;;;;21.10;39.92;100432.16;4911907;29;20142;-89
2023/04/03 11:13:28;;;;;;;5.57;3.97;;;;;;;20.39;40.82;100429.22;4930463;29;19942;-89
2023/04/03 11:16:00;;;;;;;5.68;3.47;;;;;;;19.81;42.00;100413.38;4915578;29;20040;-89
2023/04/03 11:18:28;;;;;;;6.43;3.38;;;;;;;19.10;43.27;100429.16;4912010;29;20048;-88
2023/04/03 11:21:43;;;;;;;5.82;3.20;;;;;;;18.73;44.77;100439.03;4923790;29;20043;-88
2023/04/03 11:24:16;;;;;;;;;;;;;;;18.32;45.96;100446.63;4919126;29;20134;-87
2023/04/03 11:26:42;;;;;;;7.25;3.88;;;;;;;18.96;44.73;100422.16;4913956;29;19975;-87
2023/04/03 11:29:15;;;;;;;4.93;3.40;;;;;;;20.03;41.88;100420.03;4916243;29;20050;-88
2023/04/03 11:32:05;;;;;;;6.72;4.00;;;;;;;19.84;41.72;100426.56;4897982;29;20417;-86
2023/04/03 11:34:40;;;;;;;5.70;3.45;;;;;;;19.22;42.63;100420.25;4929774;29;20135;-89
2023/04/03 11:37:30;;;;;;;5.18;3.60;;;;;;;19.24;43.02;100442.66;4916518;29;20036;-88
2023/04/03 11:40:09;;;;;;;4.30;3.15;;;;;;;19.31;42.69;100436.09;4931017;29;20497;-87
2023/04/03 11:42:44;;;;;;;8.32;3.45;;;;;;;19.03;43.20;100425.66;4905833;29;20091;-89
2023/04/03 11:45:24;;;;;;;6.63;3.22;;;;;;;18.49;44.16;100446.94;4910114;29;20430;-89